sensor_id;sensor_type;location;lat;lon;timestamp;temperature;humidity
52725;DHT22;38621;52.830;6.914;2023-07-28T00:01:38;17.70;99.90
52725;DHT22;38621;52.830;6.914;2023-07-28T00:04:04;17.70;99.90
52725;DHT22;38621;52.830;6.914;2023-07-28T00:06:35;17.70;99.90
52725;DHT22;38621;52.830;6.914;2023-07-28T00:09:00;17.70;99.90
52725;DHT22;38621;52.830;6.914;2023-07-28T00:11:26;17.70;99.90
52725;DHT22;38621;52.830;6.914;2023-07-28T00:13:51;17.70;99.90
52725;DHT22;38621;52.830;6.914;2023-07-28T00:16:17;17.70;99.90
52725;DHT22;38621;52.830;6.914;2023-07-28T00:18:43;17.70;99.90
52725;DHT22;38621;52.830;6.914;2023-07-28T00:21:08;17.70;99.90
52725;DHT22;38621;52.830;6.914;2023-07-28T00:23:34;17.70;99.90
52725;DHT22;38621;52.830;6.914;2023-07-28T00:26:00;17.70;99.90
52725;DHT22;38621;52.830;6.914;2023-07-28T00:28:25;17.70;99.90
52725;DHT22;38621;52.830;6.914;2023-07-28T00:30:51;17.70;99.90
52725;DHT22;38621;52.830;6.914;2023-07-28T00:33:17;17.70;99.90
52725;DHT22;38621;52.830;6.914;2023-07-28T00:35:43;17.70;99.90
52725;DHT22;38621;52.830;6.914;2023-07-28T00:38:09;17.70;99.90
52725;DHT22;38621;52.830;6.914;2023-07-28T00:40:35;17.70;99.90
52725;DHT22;38621;52.830;6.914;2023-07-28T00:43:01;17.70;99.90
52725;DHT22;38621;52.830;6.914;2023-07-28T00:45:28;17.70;99.90
52725;DHT22;38621;52.830;6.914;2023-07-28T00:47:55;17.60;99.90
52725;DHT22;38621;52.830;6.914;2023-07-28T00:50:24;17.70;99.90
52725;DHT22;38621;52.830;6.914;2023-07-28T00:52:50;17.60;99.90
52725;DHT22;38621;52.830;6.914;2023-07-28T00:55:16;17.70;99.90
52725;DHT22;38621;52.830;6.914;2023-07-28T00:57:42;17.70;99.90
52725;DHT22;38621;52.830;6.914;2023-07-28T01:00:09;17.60;99.90
52725;DHT22;38621;52.830;6.914;2023-07-28T01:02:35;17.70;99.90
52725;DHT22;38621;52.830;6.914;2023-07-28T01:05:03;17.60;99.90
52725;DHT22;38621;52.830;6.914;2023-07-28T01:07:47;17.60;99.90
52725;DHT22;38621;52.830;6.914;2023-07-28T01:10:24;17.70;99.90
52725;DHT22;38621;52.830;6.914;2023-07-28T01:12:51;17.70;99.90
52725;DHT22;38621;52.830;6.914;2023-07-28T01:15:17;17.70;99.90
52725;DHT22;38621;52.830;6.914;2023-07-28T01:17:43;17.70;99.90
52725;DHT22;38621;52.830;6.914;2023-07-28T01:20:09;17.70;99.90
52725;DHT22;38621;52.830;6.914;2023-07-28T01:22:46;17.60;99.90
52725;DHT22;38621;52.830;6.914;2023-07-28T01:28:18;17.60;99.90
52725;DHT22;38621;52.830;6.914;2023-07-28T01:30:45;17.70;99.90
52725;DHT22;38621;52.830;6.914;2023-07-28T01:33:11;17.70;99.90
52725;DHT22;38621;52.830;6.914;2023-07-28T01:35:37;17.70;99.90
52725;DHT22;38621;52.830;6.914;2023-07-28T01:38:04;17.60;99.90
52725;DHT22;38621;52.830;6.914;2023-07-28T01:40:30;17.60;99.90
52725;DHT22;38621;52.830;6.914;2023-07-28T01:42:55;17.60;99.90
52725;DHT22;38621;52.830;6.914;2023-07-28T01:45:21;17.70;99.90
52725;DHT22;38621;52.830;6.914;2023-07-28T01:47:47;17.60;99.90
52725;DHT22;38621;52.830;6.914;2023-07-28T01:50:13;17.60;99.90
52725;DHT22;38621;52.830;6.914;2023-07-28T01:52:38;17.60;99.90
52725;DHT22;38621;52.830;6.914;2023-07-28T01:55:04;17.60;99.90
52725;DHT22;38621;52.830;6.914;2023-07-28T01:57:34;17.60;99.90
52725;DHT22;38621;52.830;6.914;2023-07-28T02:00:01;17.60;99.90
52725;DHT22;38621;52.830;6.914;2023-07-28T02:02:28;17.60;99.90
52725;DHT22;38621;52.830;6.914;2023-07-28T02:04:57;17.60;99.90
52725;DHT22;38621;52.830;6.914;2023-07-28T02:07:23;17.70;99.90
52725;DHT22;38621;52.830;6.914;2023-07-28T02:09:49;17.60;99.90
52725;DHT22;38621;52.830;6.914;2023-07-28T02:12:14;17.60;99.90
52725;DHT22;38621;52.830;6.914;2023-07-28T02:14:40;17.70;99.90
52725;DHT22;38621;52.830;6.914;2023-07-28T02:17:06;17.60;99.90
52725;DHT22;38621;52.830;6.914;2023-07-28T02:19:31;17.60;99.90
52725;DHT22;38621;52.830;6.914;2023-07-28T02:21:57;17.70;99.90
52725;DHT22;38621;52.830;6.914;2023-07-28T02:24:23;17.60;99.90
52725;DHT22;38621;52.830;6.914;2023-07-28T02:26:48;17.60;99.90
52725;DHT22;38621;52.830;6.914;2023-07-28T02:29:14;17.70;99.90
52725;DHT22;38621;52.830;6.914;2023-07-28T02:31:40;17.60;99.90
52725;DHT22;38621;52.830;6.914;2023-07-28T02:34:05;17.60;99.90
52725;DHT22;38621;52.830;6.914;2023-07-28T02:36:31;17.60;99.90
52725;DHT22;38621;52.830;6.914;2023-07-28T02:38:57;17.70;99.90
52725;DHT22;38621;52.830;6.914;2023-07-28T02:41:22;17.70;99.90
52725;DHT22;38621;52.830;6.914;2023-07-28T02:43:48;17.70;99.90
52725;DHT22;38621;52.830;6.914;2023-07-28T02:46:14;17.60;99.90
52725;DHT22;38621;52.830;6.914;2023-07-28T02:48:39;17.70;99.90
52725;DHT22;38621;52.830;6.914;2023-07-28T02:51:05;17.70;99.90
52725;DHT22;38621;52.830;6.914;2023-07-28T02:53:31;17.70;99.90
52725;DHT22;38621;52.830;6.914;2023-07-28T02:55:56;17.60;99.90
52725;DHT22;38621;52.830;6.914;2023-07-28T02:58:22;17.60;99.90
52725;DHT22;38621;52.830;6.914;2023-07-28T03:00:51;17.70;99.90
52725;DHT22;38621;52.830;6.914;2023-07-28T03:03:16;17.70;99.90
52725;DHT22;38621;52.830;6.914;2023-07-28T03:05:42;17.70;99.90
52725;DHT22;38621;52.830;6.914;2023-07-28T03:08:08;17.70;99.90
52725;DHT22;38621;52.830;6.914;2023-07-28T03:10:33;17.70;99.90
52725;DHT22;38621;52.830;6.914;2023-07-28T03:12:59;17.60;99.90
52725;DHT22;38621;52.830;6.914;2023-07-28T03:15:25;17.70;99.90
52725;DHT22;38621;52.830;6.914;2023-07-28T03:17:51;17.60;99.90
52725;DHT22;38621;52.830;6.914;2023-07-28T03:20:16;17.60;99.90
52725;DHT22;38621;52.830;6.914;2023-07-28T03:22:42;17.70;99.90
52725;DHT22;38621;52.830;6.914;2023-07-28T03:25:08;17.60;99.90
52725;DHT22;38621;52.830;6.914;2023-07-28T03:27:34;17.70;99.90
52725;DHT22;38621;52.830;6.914;2023-07-28T03:30:00;17.60;99.90
52725;DHT22;38621;52.830;6.914;2023-07-28T03:32:26;17.60;99.90
52725;DHT22;38621;52.830;6.914;2023-07-28T03:34:52;17.70;99.90
52725;DHT22;38621;52.830;6.914;2023-07-28T03:37:18;17.70;99.90
52725;DHT22;38621;52.830;6.914;2023-07-28T03:39:44;17.70;99.90
52725;DHT22;38621;52.830;6.914;2023-07-28T03:42:10;17.70;99.90
52725;DHT22;38621;52.830;6.914;2023-07-28T03:44:36;17.70;99.90
52725;DHT22;38621;52.830;6.914;2023-07-28T03:47:07;17.70;99.90
52725;DHT22;38621;52.830;6.914;2023-07-28T03:49:33;17.70;99.90
52725;DHT22;38621;52.830;6.914;2023-07-28T03:51:59;17.70;99.90
52725;DHT22;38621;52.830;6.914;2023-07-28T03:54:24;17.60;99.90
52725;DHT22;38621;52.830;6.914;2023-07-28T03:56:50;17.70;99.90
52725;DHT22;38621;52.830;6.914;2023-07-28T03:59:16;17.60;99.90
52725;DHT22;38621;52.830;6.914;2023-07-28T04:01:42;17.70;99.90
52725;DHT22;38621;52.830;6.914;2023-07-28T04:04:07;17.70;99.90
52725;DHT22;38621;52.830;6.914;2023-07-28T04:06:45;17.70;99.90
52725;DHT22;38621;52.830;6.914;2023-07-28T04:09:13;17.70;99.90
52725;DHT22;38621;52.830;6.914;2023-07-28T04:11:39;17.70;99.90
52725;DHT22;38621;52.830;6.914;2023-07-28T04:14:05;17.70;99.90
52725;DHT22;38621;52.830;6.914;2023-07-28T04:16:31;17.70;99.90
52725;DHT22;38621;52.830;6.914;2023-07-28T04:18:57;17.80;99.90
52725;DHT22;38621;52.830;6.914;2023-07-28T04:21:23;17.70;99.90
52725;DHT22;38621;52.830;6.914;2023-07-28T04:23:49;17.70;99.90
52725;DHT22;38621;52.830;6.914;2023-07-28T04:26:15;17.70;99.90
52725;DHT22;38621;52.830;6.914;2023-07-28T04:28:41;17.70;99.90
52725;DHT22;38621;52.830;6.914;2023-07-28T04:31:07;17.70;99.90
52725;DHT22;38621;52.830;6.914;2023-07-28T04:33:32;17.80;99.90
52725;DHT22;38621;52.830;6.914;2023-07-28T04:35:58;17.80;99.90
52725;DHT22;38621;52.830;6.914;2023-07-28T04:38:23;17.80;99.90
52725;DHT22;38621;52.830;6.914;2023-07-28T04:40:49;17.80;99.90
52725;DHT22;38621;52.830;6.914;2023-07-28T04:43:15;17.80;99.90
52725;DHT22;38621;52.830;6.914;2023-07-28T04:45:41;17.80;99.90
52725;DHT22;38621;52.830;6.914;2023-07-28T04:48:06;17.80;99.90
52725;DHT22;38621;52.830;6.914;2023-07-28T04:50:32;17.80;99.90
52725;DHT22;38621;52.830;6.914;2023-07-28T04:52:59;17.90;99.90
52725;DHT22;38621;52.830;6.914;2023-07-28T04:55:25;17.80;99.90
52725;DHT22;38621;52.830;6.914;2023-07-28T04:57:52;17.90;99.90
52725;DHT22;38621;52.830;6.914;2023-07-28T05:00:18;17.90;99.90
52725;DHT22;38621;52.830;6.914;2023-07-28T05:02:44;17.90;99.90
52725;DHT22;38621;52.830;6.914;2023-07-28T05:05:10;17.90;99.90
52725;DHT22;38621;52.830;6.914;2023-07-28T05:07:35;17.90;99.90
52725;DHT22;38621;52.830;6.914;2023-07-28T05:10:01;17.90;99.90
52725;DHT22;38621;52.830;6.914;2023-07-28T05:12:27;17.90;99.90
52725;DHT22;38621;52.830;6.914;2023-07-28T05:14:53;17.90;99.90
52725;DHT22;38621;52.830;6.914;2023-07-28T05:17:19;17.90;99.90
52725;DHT22;38621;52.830;6.914;2023-07-28T05:19:45;17.90;99.90
52725;DHT22;38621;52.830;6.914;2023-07-28T05:22:10;17.90;99.90
52725;DHT22;38621;52.830;6.914;2023-07-28T05:24:36;17.90;99.90
52725;DHT22;38621;52.830;6.914;2023-07-28T05:27:02;17.90;99.90
52725;DHT22;38621;52.830;6.914;2023-07-28T05:29:28;17.90;99.90
52725;DHT22;38621;52.830;6.914;2023-07-28T05:31:53;17.90;99.90
52725;DHT22;38621;52.830;6.914;2023-07-28T05:34:19;18.00;99.90
52725;DHT22;38621;52.830;6.914;2023-07-28T05:36:45;17.90;99.90
52725;DHT22;38621;52.830;6.914;2023-07-28T05:39:10;17.90;99.90
52725;DHT22;38621;52.830;6.914;2023-07-28T05:41:39;17.90;99.90
52725;DHT22;38621;52.830;6.914;2023-07-28T05:44:05;17.90;99.90
52725;DHT22;38621;52.830;6.914;2023-07-28T05:46:31;18.00;99.90
52725;DHT22;38621;52.830;6.914;2023-07-28T05:48:57;18.00;99.90
52725;DHT22;38621;52.830;6.914;2023-07-28T05:51:22;18.00;99.90
52725;DHT22;38621;52.830;6.914;2023-07-28T05:53:49;18.10;99.90
52725;DHT22;38621;52.830;6.914;2023-07-28T05:56:15;18.10;99.90
52725;DHT22;38621;52.830;6.914;2023-07-28T05:58:41;18.10;99.90
52725;DHT22;38621;52.830;6.914;2023-07-28T06:01:07;18.20;99.90
52725;DHT22;38621;52.830;6.914;2023-07-28T06:03:33;18.20;99.90
52725;DHT22;38621;52.830;6.914;2023-07-28T06:05:58;18.20;99.90
52725;DHT22;38621;52.830;6.914;2023-07-28T06:08:24;18.10;99.90
52725;DHT22;38621;52.830;6.914;2023-07-28T06:10:50;18.20;99.90
52725;DHT22;38621;52.830;6.914;2023-07-28T06:13:15;18.20;99.90
52725;DHT22;38621;52.830;6.914;2023-07-28T06:15:42;18.20;99.90
52725;DHT22;38621;52.830;6.914;2023-07-28T06:18:08;18.20;99.90
52725;DHT22;38621;52.830;6.914;2023-07-28T06:20:34;18.30;99.90
52725;DHT22;38621;52.830;6.914;2023-07-28T06:23:00;18.30;99.90
52725;DHT22;38621;52.830;6.914;2023-07-28T06:25:26;18.30;99.90
52725;DHT22;38621;52.830;6.914;2023-07-28T06:27:52;18.30;99.90
52725;DHT22;38621;52.830;6.914;2023-07-28T06:30:17;18.50;99.90
52725;DHT22;38621;52.830;6.914;2023-07-28T06:32:43;18.50;99.90
52725;DHT22;38621;52.830;6.914;2023-07-28T06:35:09;18.50;99.90
52725;DHT22;38621;52.830;6.914;2023-07-28T06:37:36;18.50;99.90
52725;DHT22;38621;52.830;6.914;2023-07-28T06:40:06;18.50;99.90
52725;DHT22;38621;52.830;6.914;2023-07-28T06:42:36;18.60;99.90
52725;DHT22;38621;52.830;6.914;2023-07-28T06:45:03;18.60;99.90
52725;DHT22;38621;52.830;6.914;2023-07-28T06:47:29;18.60;99.90
52725;DHT22;38621;52.830;6.914;2023-07-28T06:49:55;18.70;99.90
52725;DHT22;38621;52.830;6.914;2023-07-28T06:52:21;18.70;99.90
52725;DHT22;38621;52.830;6.914;2023-07-28T06:54:47;18.80;99.90
52725;DHT22;38621;52.830;6.914;2023-07-28T06:57:14;18.90;99.90
52725;DHT22;38621;52.830;6.914;2023-07-28T06:59:41;18.90;99.90
52725;DHT22;38621;52.830;6.914;2023-07-28T07:02:06;19.00;99.90
52725;DHT22;38621;52.830;6.914;2023-07-28T07:04:32;19.00;99.90
52725;DHT22;38621;52.830;6.914;2023-07-28T07:06:58;19.00;99.90
52725;DHT22;38621;52.830;6.914;2023-07-28T07:09:23;19.00;99.90
52725;DHT22;38621;52.830;6.914;2023-07-28T07:11:50;19.00;99.90
52725;DHT22;38621;52.830;6.914;2023-07-28T07:14:16;19.00;99.90
52725;DHT22;38621;52.830;6.914;2023-07-28T07:16:42;19.00;99.90
52725;DHT22;38621;52.830;6.914;2023-07-28T07:19:08;19.00;99.90
52725;DHT22;38621;52.830;6.914;2023-07-28T07:21:34;19.10;99.90
52725;DHT22;38621;52.830;6.914;2023-07-28T07:24:00;19.00;99.90
52725;DHT22;38621;52.830;6.914;2023-07-28T07:26:26;19.10;99.90
52725;DHT22;38621;52.830;6.914;2023-07-28T07:28:52;19.20;99.90
52725;DHT22;38621;52.830;6.914;2023-07-28T07:31:18;19.20;99.90
52725;DHT22;38621;52.830;6.914;2023-07-28T07:33:44;19.20;99.90
52725;DHT22;38621;52.830;6.914;2023-07-28T07:36:13;19.20;99.90
52725;DHT22;38621;52.830;6.914;2023-07-28T07:38:40;19.30;99.90
52725;DHT22;38621;52.830;6.914;2023-07-28T07:41:12;19.30;99.90
52725;DHT22;38621;52.830;6.914;2023-07-28T07:43:38;19.40;99.90
52725;DHT22;38621;52.830;6.914;2023-07-28T07:46:04;19.30;99.90
52725;DHT22;38621;52.830;6.914;2023-07-28T07:48:30;19.30;99.90
52725;DHT22;38621;52.830;6.914;2023-07-28T07:50:56;19.30;99.90
52725;DHT22;38621;52.830;6.914;2023-07-28T07:53:21;19.20;99.90
52725;DHT22;38621;52.830;6.914;2023-07-28T07:55:48;19.20;99.90
52725;DHT22;38621;52.830;6.914;2023-07-28T07:58:14;19.30;99.90
52725;DHT22;38621;52.830;6.914;2023-07-28T08:00:40;19.50;99.90
52725;DHT22;38621;52.830;6.914;2023-07-28T08:03:06;19.70;99.90
52725;DHT22;38621;52.830;6.914;2023-07-28T08:05:32;19.80;99.90
52725;DHT22;38621;52.830;6.914;2023-07-28T08:07:57;19.90;99.90
52725;DHT22;38621;52.830;6.914;2023-07-28T08:10:23;19.90;99.90
52725;DHT22;38621;52.830;6.914;2023-07-28T08:12:49;19.90;99.90
52725;DHT22;38621;52.830;6.914;2023-07-28T08:15:15;19.80;99.90
52725;DHT22;38621;52.830;6.914;2023-07-28T08:17:41;19.80;99.90
52725;DHT22;38621;52.830;6.914;2023-07-28T08:20:08;19.80;99.90
52725;DHT22;38621;52.830;6.914;2023-07-28T08:22:33;19.70;99.90
52725;DHT22;38621;52.830;6.914;2023-07-28T08:24:59;19.70;99.90
52725;DHT22;38621;52.830;6.914;2023-07-28T08:27:25;19.90;99.90
52725;DHT22;38621;52.830;6.914;2023-07-28T08:29:51;19.90;99.90
52725;DHT22;38621;52.830;6.914;2023-07-28T08:32:16;20.00;99.90
52725;DHT22;38621;52.830;6.914;2023-07-28T08:34:42;20.10;99.90
52725;DHT22;38621;52.830;6.914;2023-07-28T08:37:08;20.20;99.90
52725;DHT22;38621;52.830;6.914;2023-07-28T08:39:34;20.30;99.90
52725;DHT22;38621;52.830;6.914;2023-07-28T08:42:01;20.50;99.90
52725;DHT22;38621;52.830;6.914;2023-07-28T08:44:31;20.70;99.90
52725;DHT22;38621;52.830;6.914;2023-07-28T08:46:57;20.80;99.90
52725;DHT22;38621;52.830;6.914;2023-07-28T08:49:23;20.70;99.90
52725;DHT22;38621;52.830;6.914;2023-07-28T08:51:50;20.60;99.90
52725;DHT22;38621;52.830;6.914;2023-07-28T08:54:16;20.50;99.90
52725;DHT22;38621;52.830;6.914;2023-07-28T08:56:43;20.40;99.90
52725;DHT22;38621;52.830;6.914;2023-07-28T08:59:09;20.50;99.90
52725;DHT22;38621;52.830;6.914;2023-07-28T09:01:41;20.60;99.90
52725;DHT22;38621;52.830;6.914;2023-07-28T09:04:12;20.70;99.90
52725;DHT22;38621;52.830;6.914;2023-07-28T09:06:38;20.80;99.90
52725;DHT22;38621;52.830;6.914;2023-07-28T09:09:07;20.80;99.90
52725;DHT22;38621;52.830;6.914;2023-07-28T09:11:33;20.90;99.90
52725;DHT22;38621;52.830;6.914;2023-07-28T09:14:00;21.00;99.90
52725;DHT22;38621;52.830;6.914;2023-07-28T09:16:26;21.00;99.90
52725;DHT22;38621;52.830;6.914;2023-07-28T09:19:05;20.80;99.90
52725;DHT22;38621;52.830;6.914;2023-07-28T09:21:32;20.70;99.90
52725;DHT22;38621;52.830;6.914;2023-07-28T09:24:04;20.70;99.90
52725;DHT22;38621;52.830;6.914;2023-07-28T09:26:42;20.90;99.90
52725;DHT22;38621;52.830;6.914;2023-07-28T09:31:44;21.50;99.90
52725;DHT22;38621;52.830;6.914;2023-07-28T09:34:11;21.70;99.90
52725;DHT22;38621;52.830;6.914;2023-07-28T09:36:37;21.70;99.90
52725;DHT22;38621;52.830;6.914;2023-07-28T09:39:06;21.60;99.90
52725;DHT22;38621;52.830;6.914;2023-07-28T09:41:38;21.40;99.90
52725;DHT22;38621;52.830;6.914;2023-07-28T09:44:05;21.40;99.90
52725;DHT22;38621;52.830;6.914;2023-07-28T09:46:33;21.40;99.90
52725;DHT22;38621;52.830;6.914;2023-07-28T09:49:05;21.40;99.90
52725;DHT22;38621;52.830;6.914;2023-07-28T09:51:34;21.40;99.90
52725;DHT22;38621;52.830;6.914;2023-07-28T09:54:24;21.20;99.90
52725;DHT22;38621;52.830;6.914;2023-07-28T09:56:55;21.10;99.90
52725;DHT22;38621;52.830;6.914;2023-07-28T09:59:29;21.20;99.90
52725;DHT22;38621;52.830;6.914;2023-07-28T10:01:58;21.40;99.90
52725;DHT22;38621;52.830;6.914;2023-07-28T10:04:24;21.50;99.90
52725;DHT22;38621;52.830;6.914;2023-07-28T10:06:52;21.40;99.90
52725;DHT22;38621;52.830;6.914;2023-07-28T10:09:27;21.50;99.90
52725;DHT22;38621;52.830;6.914;2023-07-28T10:11:53;21.50;99.90
52725;DHT22;38621;52.830;6.914;2023-07-28T10:14:30;21.50;99.90
52725;DHT22;38621;52.830;6.914;2023-07-28T10:17:00;21.70;99.90
52725;DHT22;38621;52.830;6.914;2023-07-28T10:19:33;21.70;99.90
52725;DHT22;38621;52.830;6.914;2023-07-28T10:22:07;21.70;99.90
52725;DHT22;38621;52.830;6.914;2023-07-28T10:30:03;21.80;99.90
52725;DHT22;38621;52.830;6.914;2023-07-28T10:32:42;21.70;99.90
52725;DHT22;38621;52.830;6.914;2023-07-28T10:35:09;21.60;99.90
52725;DHT22;38621;52.830;6.914;2023-07-28T10:37:47;21.50;99.90
52725;DHT22;38621;52.830;6.914;2023-07-28T10:40:32;21.30;99.90
52725;DHT22;38621;52.830;6.914;2023-07-28T10:43:04;21.20;99.90
52725;DHT22;38621;52.830;6.914;2023-07-28T10:45:31;21.10;99.90
52725;DHT22;38621;52.830;6.914;2023-07-28T10:47:58;20.90;99.90
52725;DHT22;38621;52.830;6.914;2023-07-28T10:50:32;20.90;99.90
52725;DHT22;38621;52.830;6.914;2023-07-28T10:52:58;20.80;99.90
52725;DHT22;38621;52.830;6.914;2023-07-28T10:55:25;20.80;99.90
52725;DHT22;38621;52.830;6.914;2023-07-28T10:57:53;20.80;99.90
52725;DHT22;38621;52.830;6.914;2023-07-28T11:00:20;20.90;99.90
52725;DHT22;38621;52.830;6.914;2023-07-28T11:02:51;21.20;99.90
52725;DHT22;38621;52.830;6.914;2023-07-28T11:05:26;21.70;99.90
52725;DHT22;38621;52.830;6.914;2023-07-28T11:07:54;21.90;99.90
52725;DHT22;38621;52.830;6.914;2023-07-28T11:10:20;22.00;99.90
52725;DHT22;38621;52.830;6.914;2023-07-28T11:12:49;21.90;99.90
52725;DHT22;38621;52.830;6.914;2023-07-28T11:15:17;21.90;99.90
52725;DHT22;38621;52.830;6.914;2023-07-28T11:17:50;21.70;99.90
52725;DHT22;38621;52.830;6.914;2023-07-28T11:20:17;21.50;99.90
52725;DHT22;38621;52.830;6.914;2023-07-28T11:22:44;21.30;99.90
52725;DHT22;38621;52.830;6.914;2023-07-28T11:25:10;21.10;99.90
52725;DHT22;38621;52.830;6.914;2023-07-28T11:27:38;21.10;99.90
52725;DHT22;38621;52.830;6.914;2023-07-28T11:30:05;21.40;99.90
52725;DHT22;38621;52.830;6.914;2023-07-28T11:32:34;21.50;99.90
52725;DHT22;38621;52.830;6.914;2023-07-28T11:35:08;21.40;99.90
52725;DHT22;38621;52.830;6.914;2023-07-28T11:37:38;21.30;99.90
52725;DHT22;38621;52.830;6.914;2023-07-28T11:40:06;21.20;99.90
52725;DHT22;38621;52.830;6.914;2023-07-28T11:42:34;21.20;99.90
52725;DHT22;38621;52.830;6.914;2023-07-28T11:45:01;21.30;99.90
52725;DHT22;38621;52.830;6.914;2023-07-28T11:47:27;21.50;99.90
52725;DHT22;38621;52.830;6.914;2023-07-28T11:49:54;21.80;99.90
52725;DHT22;38621;52.830;6.914;2023-07-28T11:52:20;22.10;99.90
52725;DHT22;38621;52.830;6.914;2023-07-28T11:54:47;22.40;99.90
52725;DHT22;38621;52.830;6.914;2023-07-28T11:57:12;22.50;99.90
52725;DHT22;38621;52.830;6.914;2023-07-28T11:59:38;22.50;99.90
52725;DHT22;38621;52.830;6.914;2023-07-28T12:02:04;22.40;99.90
52725;DHT22;38621;52.830;6.914;2023-07-28T12:04:32;22.30;99.90
52725;DHT22;38621;52.830;6.914;2023-07-28T12:09:33;22.20;99.90
52725;DHT22;38621;52.830;6.914;2023-07-28T12:11:59;22.20;99.90
52725;DHT22;38621;52.830;6.914;2023-07-28T12:14:35;22.10;99.90
52725;DHT22;38621;52.830;6.914;2023-07-28T12:17:00;22.10;99.90
52725;DHT22;38621;52.830;6.914;2023-07-28T12:19:29;22.20;99.90
52725;DHT22;38621;52.830;6.914;2023-07-28T12:21:55;22.30;99.90
52725;DHT22;38621;52.830;6.914;2023-07-28T12:24:20;22.50;99.90
52725;DHT22;38621;52.830;6.914;2023-07-28T12:26:47;22.80;99.90
52725;DHT22;38621;52.830;6.914;2023-07-28T12:29:13;22.90;99.90
52725;DHT22;38621;52.830;6.914;2023-07-28T12:31:39;23.10;99.90
52725;DHT22;38621;52.830;6.914;2023-07-28T12:34:05;23.20;99.90
52725;DHT22;38621;52.830;6.914;2023-07-28T12:36:30;23.40;99.90
52725;DHT22;38621;52.830;6.914;2023-07-28T12:38:56;23.40;99.90
52725;DHT22;38621;52.830;6.914;2023-07-28T12:41:22;23.50;99.90
52725;DHT22;38621;52.830;6.914;2023-07-28T12:43:48;23.60;99.90
52725;DHT22;38621;52.830;6.914;2023-07-28T12:46:13;23.60;99.90
52725;DHT22;38621;52.830;6.914;2023-07-28T12:48:39;23.70;99.90
52725;DHT22;38621;52.830;6.914;2023-07-28T12:51:06;23.70;99.90
52725;DHT22;38621;52.830;6.914;2023-07-28T12:53:31;23.70;99.90
52725;DHT22;38621;52.830;6.914;2023-07-28T12:55:57;23.70;99.90
52725;DHT22;38621;52.830;6.914;2023-07-28T12:58:23;23.60;99.90
52725;DHT22;38621;52.830;6.914;2023-07-28T13:00:49;23.60;99.90
52725;DHT22;38621;52.830;6.914;2023-07-28T13:03:15;23.80;99.90
52725;DHT22;38621;52.830;6.914;2023-07-28T13:05:41;24.00;99.90
52725;DHT22;38621;52.830;6.914;2023-07-28T13:08:08;23.90;99.90
52725;DHT22;38621;52.830;6.914;2023-07-28T13:10:34;23.70;99.90
52725;DHT22;38621;52.830;6.914;2023-07-28T13:13:00;23.70;99.90
52725;DHT22;38621;52.830;6.914;2023-07-28T13:15:25;23.70;99.90
52725;DHT22;38621;52.830;6.914;2023-07-28T13:17:51;23.60;99.90
52725;DHT22;38621;52.830;6.914;2023-07-28T13:20:17;23.60;99.90
52725;DHT22;38621;52.830;6.914;2023-07-28T13:22:42;23.70;99.90
52725;DHT22;38621;52.830;6.914;2023-07-28T13:25:08;23.70;99.90
52725;DHT22;38621;52.830;6.914;2023-07-28T13:27:34;23.70;99.90
52725;DHT22;38621;52.830;6.914;2023-07-28T13:30:00;23.80;99.90
52725;DHT22;38621;52.830;6.914;2023-07-28T13:32:26;23.80;99.90
52725;DHT22;38621;52.830;6.914;2023-07-28T13:34:52;23.90;99.90
52725;DHT22;38621;52.830;6.914;2023-07-28T13:37:18;24.00;99.90
52725;DHT22;38621;52.830;6.914;2023-07-28T13:39:45;24.00;99.90
52725;DHT22;38621;52.830;6.914;2023-07-28T13:42:10;23.90;99.90
52725;DHT22;38621;52.830;6.914;2023-07-28T13:44:38;23.90;99.90
52725;DHT22;38621;52.830;6.914;2023-07-28T13:47:04;23.90;99.90
52725;DHT22;38621;52.830;6.914;2023-07-28T13:49:31;24.00;99.90
52725;DHT22;38621;52.830;6.914;2023-07-28T13:51:57;24.00;99.90
52725;DHT22;38621;52.830;6.914;2023-07-28T13:54:22;24.00;99.90
52725;DHT22;38621;52.830;6.914;2023-07-28T13:56:48;24.10;99.90
52725;DHT22;38621;52.830;6.914;2023-07-28T13:59:14;24.10;99.90
52725;DHT22;38621;52.830;6.914;2023-07-28T14:01:40;24.00;99.90
52725;DHT22;38621;52.830;6.914;2023-07-28T14:04:06;24.00;99.90
52725;DHT22;38621;52.830;6.914;2023-07-28T14:06:32;24.00;99.90
52725;DHT22;38621;52.830;6.914;2023-07-28T14:08:57;24.10;99.90
52725;DHT22;38621;52.830;6.914;2023-07-28T14:11:23;24.30;99.90
52725;DHT22;38621;52.830;6.914;2023-07-28T14:13:49;24.40;99.90
52725;DHT22;38621;52.830;6.914;2023-07-28T14:16:14;24.30;99.90
52725;DHT22;38621;52.830;6.914;2023-07-28T14:18:40;24.30;99.90
52725;DHT22;38621;52.830;6.914;2023-07-28T14:21:06;24.20;99.90
52725;DHT22;38621;52.830;6.914;2023-07-28T14:23:32;24.10;99.90
52725;DHT22;38621;52.830;6.914;2023-07-28T14:25:57;24.20;99.90
52725;DHT22;38621;52.830;6.914;2023-07-28T14:28:23;24.30;99.90
52725;DHT22;38621;52.830;6.914;2023-07-28T14:30:50;24.30;99.90
52725;DHT22;38621;52.830;6.914;2023-07-28T14:33:17;24.10;99.90
52725;DHT22;38621;52.830;6.914;2023-07-28T14:35:44;24.10;99.90
52725;DHT22;38621;52.830;6.914;2023-07-28T14:38:11;24.20;99.90
52725;DHT22;38621;52.830;6.914;2023-07-28T14:40:37;24.20;99.90
52725;DHT22;38621;52.830;6.914;2023-07-28T14:43:03;24.30;99.90
52725;DHT22;38621;52.830;6.914;2023-07-28T14:45:30;24.40;99.90
52725;DHT22;38621;52.830;6.914;2023-07-28T14:47:56;24.50;99.90
52725;DHT22;38621;52.830;6.914;2023-07-28T14:50:21;24.50;99.90
52725;DHT22;38621;52.830;6.914;2023-07-28T14:52:48;24.60;99.90
52725;DHT22;38621;52.830;6.914;2023-07-28T14:55:13;24.70;99.90
52725;DHT22;38621;52.830;6.914;2023-07-28T14:57:39;24.80;99.90
52725;DHT22;38621;52.830;6.914;2023-07-28T15:00:05;24.90;99.90
52725;DHT22;38621;52.830;6.914;2023-07-28T15:02:33;24.90;99.90
52725;DHT22;38621;52.830;6.914;2023-07-28T15:04:59;24.80;99.90
52725;DHT22;38621;52.830;6.914;2023-07-28T15:07:24;24.60;99.90
52725;DHT22;38621;52.830;6.914;2023-07-28T15:09:50;24.40;99.90
52725;DHT22;38621;52.830;6.914;2023-07-28T15:12:16;24.60;99.90
52725;DHT22;38621;52.830;6.914;2023-07-28T15:14:41;24.50;99.90
52725;DHT22;38621;52.830;6.914;2023-07-28T15:17:07;24.40;99.90
52725;DHT22;38621;52.830;6.914;2023-07-28T15:19:33;24.70;99.90
52725;DHT22;38621;52.830;6.914;2023-07-28T15:21:59;25.20;99.90
52725;DHT22;38621;52.830;6.914;2023-07-28T15:24:24;25.00;99.90
52725;DHT22;38621;52.830;6.914;2023-07-28T15:26:50;24.70;99.90
52725;DHT22;38621;52.830;6.914;2023-07-28T15:29:18;24.70;99.90
52725;DHT22;38621;52.830;6.914;2023-07-28T15:31:44;24.50;99.90
52725;DHT22;38621;52.830;6.914;2023-07-28T15:34:09;24.30;99.90
52725;DHT22;38621;52.830;6.914;2023-07-28T15:36:36;24.00;99.90
52725;DHT22;38621;52.830;6.914;2023-07-28T15:39:01;23.90;99.90
52725;DHT22;38621;52.830;6.914;2023-07-28T15:41:27;24.00;99.90